createdAt,value
2019-01-12T00:01:20.481Z,420.25
2019-01-12T00:03:52.010Z,377.75
2019-01-12T00:06:23.440Z,405.00
2019-01-12T00:08:54.806Z,404.00
2019-01-12T00:11:26.131Z,399.75
2019-01-12T00:13:57.418Z,396.75
2019-01-12T00:16:28.985Z,388.25
2019-01-12T00:19:00.236Z,407.25
2019-01-12T00:21:31.511Z,367.00
2019-01-12T00:24:03.128Z,401.25
2019-01-12T00:26:34.726Z,393.00
2019-01-12T00:29:06.005Z,418.25
2019-01-12T00:31:37.569Z,406.25
2019-01-12T00:34:08.965Z,411.00
2019-01-12T00:36:43.035Z,385.75
2019-01-12T00:39:14.491Z,427.50
2019-01-12T00:41:46.068Z,406.25
2019-01-12T00:44:17.761Z,414.75
2019-01-12T00:46:49.365Z,408.00
2019-01-12T00:49:20.692Z,418.25
2019-01-12T00:51:52.430Z,408.75
2019-01-12T00:54:24.040Z,435.00
2019-01-12T00:56:55.619Z,438.75
2019-01-12T00:59:27.423Z,438.75
2019-01-12T01:01:58.604Z,458.75
2019-01-12T01:04:30.837Z,456.00
2019-01-12T01:07:02.479Z,439.50
2019-01-12T01:09:33.697Z,443.50
2019-01-12T01:12:05.133Z,431.00
2019-01-12T01:14:36.415Z,448.25
2019-01-12T01:17:07.702Z,452.25
2019-01-12T01:19:39.035Z,427.75
2019-01-12T01:22:10.460Z,422.75
2019-01-12T01:24:45.809Z,418.00
2019-01-12T01:27:15.130Z,436.75
2019-01-12T01:29:47.054Z,479.75
2019-01-12T01:32:18.326Z,447.00
2019-01-12T01:34:50.664Z,449.00
2019-01-12T01:37:22.136Z,400.50
2019-01-12T01:39:53.759Z,446.25
2019-01-12T01:42:25.507Z,457.50
2019-01-12T01:44:57.138Z,449.50
2019-01-12T01:47:28.714Z,408.00
2019-01-12T01:50:00.269Z,444.75
2019-01-12T01:52:32.430Z,462.00
2019-01-12T01:55:04.208Z,472.50
2019-01-12T01:57:35.499Z,461.50
2019-01-12T02:00:12.202Z,469.75
2019-01-12T02:02:43.859Z,445.75
2019-01-12T02:05:15.681Z,512.00
2019-01-12T02:07:47.088Z,512.00
2019-01-12T02:10:23.820Z,516.75
2019-01-12T02:12:55.240Z,458.75
2019-01-12T02:15:27.072Z,513.75
2019-01-12T02:17:58.344Z,452.25
2019-01-12T02:20:29.662Z,485.75
2019-01-12T02:23:01.881Z,460.25
2019-01-12T02:25:33.406Z,489.00
2019-01-12T02:28:04.852Z,533.50
2019-01-12T02:30:36.477Z,543.00
2019-01-12T02:33:08.531Z,435.25
2019-01-12T02:35:39.949Z,483.00
2019-01-12T02:38:11.150Z,510.75
2019-01-12T02:40:42.329Z,531.75
2019-01-12T02:43:14.167Z,532.00
2019-01-12T02:45:45.539Z,523.40
2019-01-12T02:48:19.071Z,542.00
2019-01-12T02:50:50.659Z,567.40
2019-01-12T02:53:22.266Z,536.40
2019-01-12T02:55:53.797Z,557.40
2019-01-12T02:58:25.112Z,533.00
2019-01-12T03:00:57.408Z,559.40
2019-01-12T03:03:29.087Z,553.00
2019-01-12T03:06:00.465Z,589.75
2019-01-12T03:08:32.057Z,633.60
2019-01-12T03:11:03.581Z,604.40
2019-01-12T03:13:35.008Z,655.00
2019-01-12T03:16:06.434Z,642.60
2019-01-12T03:18:37.669Z,659.60
2019-01-12T03:21:09.282Z,669.60
2019-01-12T03:23:41.147Z,621.40
2019-01-12T03:26:12.338Z,588.20
2019-01-12T03:28:44.084Z,614.20
2019-01-12T03:31:15.307Z,553.80
2019-01-12T03:33:46.878Z,528.80
2019-01-12T03:36:18.084Z,497.25
2019-01-12T03:38:49.421Z,547.75
2019-01-12T03:41:20.540Z,508.75
2019-01-12T03:43:51.912Z,532.75
2019-01-12T03:46:23.084Z,530.00
2019-01-12T03:48:55.051Z,518.00
2019-01-12T03:51:26.639Z,504.50
2019-01-12T03:53:59.265Z,495.50
2019-01-12T03:56:30.686Z,529.00
2019-01-12T03:59:02.024Z,504.50
2019-01-12T04:01:33.576Z,495.00
2019-01-12T04:04:05.316Z,506.75
2019-01-12T04:06:37.089Z,482.25
2019-01-12T04:09:13.061Z,493.00
2019-01-12T04:11:44.310Z,495.25
2019-01-12T04:14:16.045Z,456.25
2019-01-12T04:16:47.687Z,488.50
2019-01-12T04:19:19.329Z,491.25
2019-01-12T04:21:50.541Z,458.00
2019-01-12T04:24:22.213Z,458.75
2019-01-12T04:26:53.721Z,498.75
2019-01-12T04:29:25.693Z,482.25
2019-01-12T04:31:56.946Z,479.75
2019-01-12T04:34:29.231Z,472.50
2019-01-12T04:37:01.009Z,510.25
2019-01-12T04:39:32.546Z,507.50
2019-01-12T04:42:03.791Z,543.00
2019-01-12T04:44:35.258Z,488.50
2019-01-12T04:47:06.433Z,506.75
2019-01-12T04:49:37.974Z,489.75
2019-01-12T04:52:09.137Z,507.75
2019-01-12T04:54:41.566Z,455.00
2019-01-12T04:57:12.998Z,490.50
2019-01-12T04:59:44.191Z,504.25
2019-01-12T05:02:15.554Z,457.25
2019-01-12T05:04:46.862Z,496.00
2019-01-12T05:07:18.277Z,497.75
2019-01-12T05:09:49.584Z,551.60
2019-01-12T05:12:21.185Z,554.40
2019-01-12T05:14:52.532Z,570.20
2019-01-12T05:17:23.978Z,570.40
2019-01-12T05:19:55.386Z,543.50
2019-01-12T05:22:26.753Z,542.50
2019-01-12T05:24:58.782Z,543.50
2019-01-12T05:27:31.219Z,505.00
2019-01-12T05:30:02.432Z,557.50
2019-01-12T05:32:33.932Z,533.00
2019-01-12T05:35:05.326Z,579.00
2019-01-12T05:37:36.596Z,565.80
2019-01-12T05:40:08.949Z,581.40
2019-01-12T05:42:41.511Z,639.25
2019-01-12T05:45:13.443Z,621.60
2019-01-12T05:47:44.841Z,640.00
2019-01-12T05:50:16.334Z,671.75
2019-01-12T05:52:48.515Z,647.25
2019-01-12T05:55:20.169Z,620.20
2019-01-12T05:57:51.939Z,668.00
2019-01-12T06:00:24.519Z,640.60
2019-01-12T06:02:56.086Z,588.50
2019-01-12T06:05:27.766Z,641.50
2019-01-12T06:07:59.349Z,621.00
2019-01-12T06:10:30.816Z,442.75
2019-01-12T06:13:02.931Z,302.00
2019-01-12T06:15:34.613Z,292.25
2019-01-12T06:18:06.632Z,357.25
2019-01-12T06:20:38.227Z,336.00
2019-01-12T06:23:11.232Z,349.00
2019-01-12T06:25:43.146Z,334.25
2019-01-12T06:28:14.637Z,311.75
2019-01-12T06:30:45.950Z,325.75
2019-01-12T06:33:17.255Z,329.00
2019-01-12T06:35:48.860Z,338.00
2019-01-12T06:38:20.380Z,307.50
2019-01-12T06:40:52.036Z,308.25
2019-01-12T06:43:23.475Z,262.75
2019-01-12T06:45:54.996Z,274.75
2019-01-12T06:48:26.513Z,239.50
2019-01-12T06:50:57.874Z,252.75
2019-01-12T06:53:29.518Z,237.40
2019-01-12T06:56:01.606Z,263.75
2019-01-12T06:58:33.232Z,246.75
2019-01-12T07:01:05.151Z,244.00
2019-01-12T07:03:36.261Z,252.25
2019-01-12T07:06:08.083Z,255.50
2019-01-12T07:08:39.327Z,230.00
2019-01-12T07:11:10.811Z,208.80
2019-01-12T07:13:42.366Z,229.20
2019-01-12T07:16:13.933Z,167.20
2019-01-12T07:18:45.157Z,180.20
2019-01-12T07:21:16.572Z,181.60
2019-01-12T07:23:47.845Z,181.60
2019-01-12T07:26:19.870Z,205.00
2019-01-12T07:28:51.286Z,194.80
2019-01-12T07:31:23.866Z,243.60
2019-01-12T07:33:56.208Z,195.80
2019-01-12T07:36:27.874Z,212.20
2019-01-12T07:38:59.449Z,222.20
2019-01-12T07:41:30.768Z,229.20
2019-01-12T07:44:02.192Z,218.60
2019-01-12T07:46:33.878Z,223.80
2019-01-12T07:49:05.107Z,224.40
2019-01-12T07:51:36.327Z,192.60
2019-01-12T07:54:10.483Z,213.40
2019-01-12T07:56:42.550Z,195.20
2019-01-12T07:59:14.026Z,193.60
2019-01-12T08:01:45.494Z,182.80
2019-01-12T08:04:16.952Z,172.00
2019-01-12T08:06:48.646Z,198.40
2019-01-12T08:09:20.331Z,198.80
2019-01-12T08:11:51.742Z,190.80
2019-01-12T08:14:23.432Z,195.40
2019-01-12T08:16:55.214Z,205.40
2019-01-12T08:19:26.700Z,196.00
2019-01-12T08:21:58.382Z,187.60
2019-01-12T08:24:30.051Z,195.80
2019-01-12T08:27:01.866Z,205.00
2019-01-12T08:29:33.078Z,185.00
2019-01-12T08:32:04.693Z,198.40
2019-01-12T08:34:36.134Z,210.00
2019-01-12T08:37:10.347Z,177.40
2019-01-12T08:39:41.740Z,196.60
2019-01-12T08:42:13.054Z,208.00
2019-01-12T08:44:44.235Z,182.80
2019-01-12T08:47:15.980Z,194.40
2019-01-12T08:49:47.429Z,178.60
2019-01-12T08:52:18.912Z,197.20
2019-01-12T08:54:50.514Z,198.80
2019-01-12T08:57:22.487Z,188.20
2019-01-12T08:59:53.950Z,191.60
2019-01-12T09:02:25.746Z,190.20
2019-01-12T09:04:57.122Z,196.80
2019-01-12T09:07:28.719Z,203.40
2019-01-12T09:10:00.499Z,183.00
2019-01-12T09:12:32.742Z,204.80
2019-01-12T09:15:04.491Z,169.00
2019-01-12T09:17:36.660Z,209.40
2019-01-12T09:20:12.813Z,201.00
2019-01-12T09:22:45.381Z,199.60
2019-01-12T09:25:17.734Z,190.60
2019-01-12T09:27:50.425Z,187.80
2019-01-12T09:30:24.567Z,188.00
2019-01-12T09:32:56.605Z,192.60
2019-01-12T09:35:27.996Z,175.40
2019-01-12T09:37:59.567Z,201.20
2019-01-12T09:40:31.228Z,191.20
2019-01-12T09:43:02.763Z,175.20
2019-01-12T09:45:34.665Z,177.80
2019-01-12T09:48:06.443Z,193.20
2019-01-12T09:50:37.829Z,196.60
2019-01-12T09:53:09.261Z,183.40
2019-01-12T09:55:43.486Z,180.60
2019-01-12T09:58:15.175Z,200.60
2019-01-12T10:00:47.034Z,202.60
2019-01-12T10:03:18.709Z,201.60
2019-01-12T10:05:50.446Z,226.20
2019-01-12T10:08:21.950Z,200.60
2019-01-12T10:10:53.966Z,194.00
2019-01-12T10:13:25.479Z,205.80
2019-01-12T10:15:57.252Z,192.00
2019-01-12T10:18:28.606Z,187.00
2019-01-12T10:21:00.154Z,186.40
2019-01-12T10:23:31.387Z,193.60
2019-01-12T10:26:04.258Z,195.20
2019-01-12T10:28:35.944Z,202.00
2019-01-12T10:31:08.064Z,215.00
2019-01-12T10:33:39.448Z,211.40
2019-01-12T10:36:11.212Z,204.60
2019-01-12T10:38:42.598Z,209.40
2019-01-12T10:41:14.491Z,213.20
2019-01-12T10:43:45.878Z,217.20
2019-01-12T10:46:17.402Z,212.20
2019-01-12T10:48:48.723Z,215.20
2019-01-12T10:51:20.998Z,201.60
2019-01-12T10:53:54.371Z,197.00
2019-01-12T10:56:28.305Z,212.00
2019-01-12T10:59:02.019Z,199.80
2019-01-12T11:01:34.950Z,202.40
2019-01-12T11:04:07.739Z,174.20
2019-01-12T11:06:40.388Z,192.80
2019-01-12T11:09:12.712Z,169.40
2019-01-12T11:11:45.422Z,172.00
2019-01-12T11:14:17.441Z,164.20
2019-01-12T11:16:48.945Z,172.60
2019-01-12T11:19:20.644Z,159.20
2019-01-12T11:21:52.135Z,172.40
2019-01-12T11:24:24.493Z,154.60
2019-01-12T11:26:56.079Z,167.40
2019-01-12T11:29:27.968Z,138.60
2019-01-12T11:31:59.969Z,143.40
2019-01-12T11:34:31.960Z,170.80
2019-01-12T11:37:03.426Z,174.00
2019-01-12T11:39:35.041Z,182.20
2019-01-12T11:42:06.727Z,213.00
2019-01-12T11:44:39.223Z,173.60
2019-01-12T11:47:10.890Z,182.80
2019-01-12T11:49:42.900Z,170.80
2019-01-12T11:52:14.534Z,172.00
2019-01-12T11:54:45.707Z,168.20
2019-01-12T11:57:19.325Z,165.00
2019-01-12T11:59:50.993Z,175.60
2019-01-12T12:02:22.620Z,176.20
2019-01-12T12:04:53.946Z,163.40
2019-01-12T12:07:25.317Z,159.80
2019-01-12T12:09:56.789Z,161.20
2019-01-12T12:12:28.144Z,163.80
2019-01-12T12:15:00.355Z,157.80
2019-01-12T12:17:31.725Z,163.40
2019-01-12T12:20:03.416Z,184.40
2019-01-12T12:22:34.569Z,161.40
2019-01-12T12:25:06.886Z,160.60
2019-01-12T12:27:41.761Z,160.20
2019-01-12T12:30:17.671Z,170.80
2019-01-12T12:32:49.290Z,165.00
2019-01-12T12:35:20.886Z,162.00
2019-01-12T12:37:52.781Z,169.20
2019-01-12T12:40:25.778Z,185.80
2019-01-12T12:42:58.369Z,165.40
2019-01-12T12:45:32.813Z,174.60
2019-01-12T12:48:05.139Z,173.80
2019-01-12T12:50:37.098Z,169.60
2019-01-12T12:53:08.604Z,180.40
2019-01-12T12:55:40.062Z,197.40
2019-01-12T12:58:11.473Z,192.40
2019-01-12T13:00:43.282Z,205.60
2019-01-12T13:03:15.094Z,187.40
2019-01-12T13:05:46.877Z,198.80
2019-01-12T13:08:18.714Z,199.00
2019-01-12T13:10:50.527Z,213.00
2019-01-12T13:13:22.197Z,205.00
2019-01-12T13:15:53.750Z,197.20
2019-01-12T13:18:25.462Z,219.40
2019-01-12T13:20:56.956Z,220.40
2019-01-12T13:23:28.442Z,209.00
2019-01-12T13:26:01.432Z,223.00
2019-01-12T13:28:33.141Z,208.75
2019-01-12T13:31:04.863Z,216.25
2019-01-12T13:33:36.385Z,238.00
2019-01-12T13:36:08.479Z,235.50
2019-01-12T13:38:39.906Z,245.50
2019-01-12T13:41:11.175Z,242.00
2019-01-12T13:43:43.167Z,265.00
2019-01-12T13:46:14.788Z,247.25
2019-01-12T13:48:46.130Z,264.25
2019-01-12T13:51:17.524Z,254.25
2019-01-12T13:53:48.997Z,285.75
2019-01-12T13:56:20.161Z,281.00
2019-01-12T13:58:51.872Z,330.25
2019-01-12T14:01:23.348Z,319.25
2019-01-12T14:03:54.932Z,308.75
2019-01-12T14:06:27.259Z,344.50
2019-01-12T14:08:58.610Z,361.75
2019-01-12T14:11:30.096Z,366.00
2019-01-12T14:14:01.844Z,396.50
2019-01-12T14:16:33.548Z,413.75
2019-01-12T14:19:05.223Z,459.00
2019-01-12T14:21:36.545Z,452.75
2019-01-12T14:24:08.061Z,457.50
2019-01-12T14:26:39.428Z,430.75
2019-01-12T14:29:11.432Z,452.25
2019-01-12T14:31:43.318Z,434.50
2019-01-12T14:34:14.492Z,447.25
2019-01-12T14:36:46.034Z,457.75
2019-01-12T14:39:17.822Z,462.60
2019-01-12T14:41:49.411Z,478.00
2019-01-12T14:44:20.785Z,463.60
2019-01-12T14:46:53.648Z,479.00
2019-01-12T14:49:28.201Z,474.80
2019-01-12T14:52:03.390Z,473.60
2019-01-12T14:54:34.803Z,478.80
2019-01-12T14:57:06.817Z,486.00
2019-01-12T14:59:38.243Z,474.80
2019-01-12T15:02:09.556Z,489.20
2019-01-12T15:04:41.066Z,502.60
2019-01-12T15:07:12.735Z,542.00
2019-01-12T15:09:44.100Z,516.60
2019-01-12T15:12:15.582Z,504.40
2019-01-12T15:14:46.995Z,501.20
2019-01-12T15:17:18.716Z,529.40
2019-01-12T15:19:50.155Z,541.50
2019-01-12T15:22:22.097Z,539.00
2019-01-12T15:24:54.415Z,536.25
2019-01-12T15:27:26.101Z,519.75
2019-01-12T15:29:57.683Z,538.20
2019-01-12T15:32:29.317Z,523.60
2019-01-12T15:35:00.791Z,580.20
2019-01-12T15:37:32.388Z,604.80
2019-01-12T15:40:03.758Z,583.00
2019-01-12T15:42:35.174Z,579.40
2019-01-12T15:45:08.321Z,597.00
2019-01-12T15:47:40.988Z,586.20
2019-01-12T15:50:18.553Z,600.20
2019-01-12T15:52:50.319Z,576.00
2019-01-12T15:55:21.948Z,576.40
2019-01-12T15:57:53.616Z,548.60
2019-01-12T16:00:30.862Z,609.60
2019-01-12T16:03:02.687Z,548.40
2019-01-12T16:05:34.422Z,594.75
2019-01-12T16:08:06.206Z,573.80
2019-01-12T16:10:38.556Z,551.40
2019-01-12T16:13:10.193Z,579.80
2019-01-12T16:15:41.621Z,542.20
2019-01-12T16:18:14.083Z,537.40
2019-01-12T16:20:45.706Z,546.40
2019-01-12T16:23:17.170Z,567.60
2019-01-12T16:25:49.075Z,544.80
2019-01-12T16:28:23.364Z,572.20
2019-01-12T16:30:53.932Z,551.40
2019-01-12T16:33:26.035Z,570.60
2019-01-12T16:35:57.284Z,571.80
2019-01-12T16:38:29.154Z,597.60
2019-01-12T16:41:00.431Z,620.40
2019-01-12T16:43:32.510Z,632.20
2019-01-12T16:46:04.673Z,616.40
2019-01-12T16:48:36.721Z,547.40
2019-01-12T16:51:08.301Z,563.60
2019-01-12T16:53:39.811Z,553.40
2019-01-12T16:56:11.361Z,552.60
2019-01-12T16:58:44.238Z,519.60
2019-01-12T17:01:15.784Z,507.00
2019-01-12T17:03:47.647Z,554.60
2019-01-12T17:06:19.268Z,509.50
2019-01-12T17:08:51.558Z,503.80
2019-01-12T17:11:23.186Z,523.25
2019-01-12T17:13:55.217Z,517.60
2019-01-12T17:16:27.087Z,527.60
2019-01-12T17:18:58.997Z,530.20
2019-01-12T17:21:30.647Z,477.80
2019-01-12T17:24:02.215Z,481.00
2019-01-12T17:26:35.988Z,454.50
2019-01-12T17:29:07.623Z,536.50
2019-01-12T17:31:40.032Z,503.25
2019-01-12T17:34:11.892Z,519.75
2019-01-12T17:36:43.499Z,532.00
2019-01-12T17:39:16.123Z,544.25
2019-01-12T17:41:47.883Z,536.50
2019-01-12T17:44:19.420Z,538.80
2019-01-12T17:46:51.065Z,519.25
2019-01-12T17:49:22.545Z,531.40
2019-01-12T17:51:54.489Z,489.00
2019-01-12T17:54:26.067Z,516.00
2019-01-12T17:56:57.573Z,513.40
2019-01-12T17:59:29.092Z,519.40
2019-01-12T18:02:00.792Z,494.40
2019-01-12T18:04:32.265Z,499.50
2019-01-12T18:07:03.919Z,492.50
2019-01-12T18:09:35.787Z,514.75
2019-01-12T18:12:07.599Z,501.50
2019-01-12T18:14:39.293Z,534.25
2019-01-12T18:17:10.437Z,540.60
2019-01-12T18:19:43.413Z,526.25
2019-01-12T18:22:14.861Z,529.50
2019-01-12T18:24:46.277Z,530.50
2019-01-12T18:27:18.198Z,523.25
2019-01-12T18:29:49.860Z,535.25
2019-01-12T18:32:21.794Z,541.75
2019-01-12T18:34:53.511Z,505.00
2019-01-12T18:37:24.987Z,523.50
2019-01-12T18:39:56.443Z,526.00
2019-01-12T18:42:27.825Z,513.00
2019-01-12T18:44:59.207Z,517.25
2019-01-12T18:47:30.592Z,504.75
2019-01-12T18:50:01.973Z,500.50
2019-01-12T18:52:33.395Z,488.50
2019-01-12T18:55:05.319Z,504.50
2019-01-12T18:57:36.437Z,494.00
2019-01-12T19:00:18.409Z,499.50
2019-01-12T19:02:45.830Z,465.75
2019-01-12T19:05:17.660Z,515.25
2019-01-12T19:07:49.455Z,487.25
2019-01-12T19:10:20.692Z,475.00
2019-01-12T19:12:52.238Z,489.75
2019-01-12T19:15:34.208Z,489.75
2019-01-12T19:18:06.006Z,460.00
2019-01-12T19:20:37.788Z,467.75
2019-01-12T19:23:09.508Z,458.75
2019-01-12T19:25:40.784Z,446.50
2019-01-12T19:28:12.447Z,436.50
2019-01-12T19:30:43.820Z,462.75
2019-01-12T19:33:15.843Z,481.50
2019-01-12T19:35:46.930Z,491.75
2019-01-12T19:38:18.720Z,470.75
2019-01-12T19:40:50.250Z,448.00
2019-01-12T19:43:21.517Z,447.25
2019-01-12T19:45:52.740Z,443.50
2019-01-12T19:48:24.144Z,446.25
2019-01-12T19:50:55.979Z,478.00
2019-01-12T19:53:27.886Z,486.00
2019-01-12T19:55:59.491Z,452.50
2019-01-12T19:58:31.031Z,449.75
2019-01-12T20:01:03.549Z,469.25
2019-01-12T20:03:35.143Z,450.25
2019-01-12T20:06:07.651Z,451.25
2019-01-12T20:08:42.636Z,428.75
2019-01-12T20:11:14.179Z,471.75
2019-01-12T20:13:46.048Z,441.00
2019-01-12T20:16:17.596Z,478.50
2019-01-12T20:18:49.378Z,458.25
2019-01-12T20:21:20.758Z,459.50
2019-01-12T20:23:52.260Z,441.25
2019-01-12T20:26:23.482Z,463.00
2019-01-12T20:28:55.398Z,443.75
2019-01-12T20:31:45.761Z,459.75
2019-01-12T20:34:54.616Z,450.00
2019-01-12T20:38:03.224Z,450.00
2019-01-12T20:41:09.059Z,431.00
2019-01-12T20:44:26.727Z,408.25
2019-01-12T20:47:38.334Z,407.00
2019-01-12T20:50:30.207Z,442.75
2019-01-12T20:53:35.394Z,425.00
2019-01-12T20:56:31.846Z,429.75
2019-01-12T20:59:28.334Z,431.25
2019-01-12T21:02:31.452Z,398.50
2019-01-12T21:05:36.686Z,399.25
2019-01-12T21:08:48.379Z,419.75
2019-01-12T21:12:22.849Z,437.25
2019-01-12T21:15:15.980Z,407.75
2019-01-12T21:17:47.325Z,429.75
2019-01-12T21:20:19.052Z,421.75
2019-01-12T21:22:50.948Z,453.25
2019-01-12T21:25:22.355Z,420.50
2019-01-12T21:27:54.197Z,388.50
2019-01-12T21:30:25.523Z,430.75
2019-01-12T21:32:56.818Z,409.75
2019-01-12T21:35:28.005Z,437.75
2019-01-12T21:37:59.325Z,438.00
2019-01-12T21:40:31.279Z,449.50
2019-01-12T21:43:02.918Z,427.50
2019-01-12T21:45:34.230Z,405.50
2019-01-12T21:48:05.475Z,397.00
2019-01-12T21:50:36.728Z,443.50
2019-01-12T21:53:07.977Z,444.25
2019-01-12T21:55:39.240Z,409.75
2019-01-12T21:58:11.205Z,383.50
2019-01-12T22:00:42.512Z,388.50
2019-01-12T22:03:13.769Z,402.50
2019-01-12T22:05:45.196Z,415.50
2019-01-12T22:08:17.551Z,383.25
2019-01-12T22:10:49.587Z,400.50
2019-01-12T22:13:21.252Z,402.25
2019-01-12T22:15:52.673Z,391.75
2019-01-12T22:18:24.169Z,415.50
2019-01-12T22:20:55.675Z,410.50
2019-01-12T22:23:27.467Z,397.00
2019-01-12T22:25:58.897Z,408.75
2019-01-12T22:28:30.150Z,411.25
2019-01-12T22:31:01.403Z,404.75
2019-01-12T22:33:33.749Z,417.75
2019-01-12T22:36:05.031Z,391.25
2019-01-12T22:38:36.362Z,393.75
2019-01-12T22:41:08.242Z,384.25
2019-01-12T22:43:39.668Z,427.75
2019-01-12T22:46:11.612Z,401.25
2019-01-12T22:48:44.172Z,421.00
2019-01-12T22:51:15.896Z,426.25
2019-01-12T22:53:47.240Z,422.00
2019-01-12T22:56:18.916Z,399.25
2019-01-12T22:58:50.192Z,419.50
2019-01-12T23:01:50.430Z,432.75
2019-01-12T23:04:23.930Z,395.25
2019-01-12T23:06:55.187Z,399.50
2019-01-12T23:09:26.512Z,438.00
2019-01-12T23:11:59.304Z,427.25
2019-01-12T23:14:30.746Z,448.25
2019-01-12T23:17:02.039Z,435.75
2019-01-12T23:19:33.416Z,386.25
2019-01-12T23:22:05.253Z,395.00
2019-01-12T23:24:37.659Z,369.50
2019-01-12T23:27:09.957Z,343.25
2019-01-12T23:29:41.314Z,342.75
2019-01-12T23:32:12.889Z,355.75
2019-01-12T23:34:44.182Z,334.75
2019-01-12T23:37:15.678Z,318.75
2019-01-12T23:39:47.075Z,317.50
2019-01-12T23:42:18.539Z,349.00
2019-01-12T23:44:50.095Z,363.75
2019-01-12T23:47:21.808Z,345.75
2019-01-12T23:49:53.004Z,358.50
2019-01-12T23:52:24.825Z,370.00
2019-01-12T23:54:56.313Z,327.50
2019-01-12T23:57:27.832Z,362.50
2019-01-12T23:59:59.406Z,356.00
